首页
METAR-TAF:

METAR-TAF

机场 :

羅曼·莫圖國際機場

科羅爾, 巴伯尔道布岛, 帛琉

纬度: 07-22N, 经度: 134-32E, 海拔: 54米

当前天气观测

该预报发布于1小时和36分钟前的19:50 UTC
风速10节,风向西转西南
温度 26°C
湿度 89%
气压 1012 hPa
能見度: 20.9公里
多云层高于1500英尺, 积雨云.
阴天层高于29000英尺

METAR: PTRO 271950Z 25010KT 13SM BKN015CB OVC290 26/24 A2989 RMK CB ALQDS AND OHD

时间: 06:26 (21:26 UTC)

预报

该预报发布于2小时和15分钟前的19:11 UTC
预报有效从27日的 19点(UTC)到 28日的 18点(UTC)
风速11节,风向南转南东
能見度: 10公里
少量云层高于1600英尺
散云层高于4000英尺
多云层高于12000英尺
附近有阵雨
短暂存在
从 27日的 19点(UTC)到 27日的 23点(UTC)
风速11节,风向,有时为18节阵风
能見度: 8.0公里
多云层高于1600英尺
阴天层高于3000英尺
阵雨
从 28日的 0000点(UTC)
风速11节,风向东转东南
能見度: 10公里
散云层高于1600英尺
散云层高于4000英尺
多云层高于12000英尺
附近有阵雨
短暂存在
从 28日的 00点(UTC)到 28日的 04点(UTC)
能見度: 4.8公里
多云层高于1400英尺
阴天层高于2500英尺
大阵雨

TAF: PTRO 271911Z 2719/2818 15011KT P6SM VCSH FEW016 SCT040 BKN120 TEMPO 2719/2723 17011G18KT 5SM SHRA BKN016 OVC030 FM280000 12011KT P6SM VCSH SCT016 SCT040 BKN120 TEMPO 2800/2804 3SM +SHRA BKN014 OVC025

超过4000个机场的气象观测和天气预报(METAR&TAF报告)。

可查询的气象台以黄色和红色小点在地图上表示。

将鼠标移到小点上方,可查看气象台名称。

然后点击查看天气观测和预报。

如需切换地图:点击带黑十字的绿色按钮放大地图;点击带横线的绿色按钮缩小地图;或者点击绿色箭头查看邻近地区的地图。


METAR-TAF: